Kypros Bravery — 5BET4 — position and weather

sailwx.info

Track history (hours):
 
Tides and Currents Weather Stations Pressure Air Temp Water Temp Dewpoint Dewpoint Depression Visibility Wind Speed Wind Dir Waves Ship Positions

Kypros Bravery

Last reported at 2018-Jun-06 03:33 UTC. Time now 2018-Jun-18 09:29 UTC.
Position S 30°31' E 031°29'.
Warning: this ship's position is 12 days out of date.

Length 225 m; draft 8.6 m.

Type: Cargo ship. MMSI: 212498000.

Date/timePositionNaut miles runAvg speedWind from/ knotsBaromVisibWave heightAir tempDewpointWater temp
2018-Jun-06 03:33S 30°31' E 031°29'113.0
2018-Jun-06 03:30S 30°30' E 031°29'813.0
2018-Jun-06 02:53S 30°24' E 031°35'512.6
2018-Jun-06 02:30S 30°20' E 031°39'612.6
2018-Jun-06 02:00S 30°15' E 031°43'612.2
2018-Jun-06 01:30S 30°11' E 031°47'612.0
2018-Jun-06 01:00S 30°06' E 031°52'911.7
2018-Jun-06 00:12S 29°59' E 031°58'311.3
2018-Jun-05 23:58S 29°57' E 032°00'  
Track history (hours):
 
Tides and Currents Weather Stations Pressure Air Temp Water Temp Dewpoint Dewpoint Depression Visibility Wind Speed Wind Dir Waves Ship Positions

Kypros Bravery

Last reported at 2018-Jun-06 03:33 UTC. Time now 2018-Jun-18 09:29 UTC.
Position S 30°31' E 031°29'.
Warning: this ship's position is 12 days out of date.

Length 225 m; draft 8.6 m.

Type: Cargo ship. MMSI: 212498000.

Date/timePositionNaut miles runAvg speedWind from/ knotsBaromVisibWave heightAir tempDewpointWater temp
2018-Jun-06 03:33S 30°31' E 031°29'113.0
2018-Jun-06 03:30S 30°30' E 031°29'813.0
2018-Jun-06 02:53S 30°24' E 031°35'512.6
2018-Jun-06 02:30S 30°20' E 031°39'612.6
2018-Jun-06 02:00S 30°15' E 031°43'612.2
2018-Jun-06 01:30S 30°11' E 031°47'612.0
2018-Jun-06 01:00S 30°06' E 031°52'911.7
2018-Jun-06 00:12S 29°59' E 031°58'311.3
2018-Jun-05 23:58S 29°57' E 032°00'  

Dump ship's entire track history